KYIP/YIP METAR and TAF weather

Enter ICAO airport designator
Station Type Date Time Source
KYIP METAR 2021/10/20 06:53 UTC NOAA

KYIP 200653Z 21004KT 10SM FEW120 11/07 A3011 RMK AO2 SLP193 T01110072


Station Type Date Time Source
KYIP Decoded METAR 2021/10/20 06:53 UTC NOAA

WILLOW RUN AIRPORT, MI, United States (KYIP) 42-14N 083-32W 215M
Oct 20, 2021 - 02:53 AM EDT / 2021.10.20 0653 UTC
Wind: from the SSW (210 degrees) at 5 MPH (4 KT):0
Visibility: 10 mile(s):0
Sky conditions: mostly clear
Temperature: 52.0 F (11.1 C)
Dew Point: 45.0 F (7.2 C)
Relative Humidity: 76%
Pressure (altimeter): 30.11 in. Hg (1019 hPa)
ob: KYIP 200653Z 21004KT 10SM FEW120 11/07 A3011 RMK AO2 SLP193 T01110072
cycle: 7

Station Type Date Time Source
KYIP TAF 2021/10/20 06:22 UTC NOAA

TAF KYIP 200520Z 2006/2106 26006KT P6SM SCT250
FM201600 23011KT P6SM SCT120
FM202300 22006KT P6SM SCT080 OVC150

Example: see airport list